Terminal Aerodrome Forecast
Issued by NWS

Home | Current Version | Previous Version | Text Only | Print | Product List | Glossary On
Versions: 1 2 3 4 5 6 7 8 9 10 11 12 13 14 15 16 17 18 19 20 21 22 23 24 25
000
FTUS43 KPAH 230500
TAFOWB
TAF
KOWB 230536Z 2306/2406 03004KT P6SM OVC050
     FM231800 36005KT P6SM OVC060 PROB30 2318/2323 3SM -SN=

USA.gov is the U.S. government's official web portal to all federal, state and local government web resources and services.